Time;durP1;ratioP1;P1;durP2;ratioP2;P2;SDS_P1;SDS_P2;PMS_P1;PMS_P2;Temp;Humidity;BMP_temperature;BMP_pressure;BME280_temperature;BME280_humidity;BME280_pressure;Samples;Min_cycle;Max_cycle;Signal;HPM_P1;HPM_P2
2023/09/19 00:02:41;;;;;;;27.00;13.00;;;;;;;26.35;47.52;98285.76;67876;1276;1016460;-66
2023/09/19 00:05:44;;;;;;;27.00;12.90;;;;;;;26.33;47.66;98287.95;67908;1276;1015949;-66
2023/09/19 00:08:47;;;;;;;26.90;13.10;;;;;;;26.36;47.60;98284.77;67894;1276;1016209;-65
2023/09/19 00:11:51;;;;;;;29.00;12.40;;;;;;;26.39;47.53;98286.83;67899;1276;1016668;-66
2023/09/19 00:14:53;;;;;;;26.40;12.20;;;;;;;26.31;47.73;98282.12;67863;1276;1016166;-65
2023/09/19 00:17:56;;;;;;;25.40;12.10;;;;;;;26.16;47.97;98278.41;67869;1276;1016142;-65
2023/09/19 00:20:58;;;;;;;28.00;12.90;;;;;;;26.23;48.04;98279.65;67892;1276;1016500;-65
2023/09/19 00:24:00;;;;;;;29.10;12.40;;;;;;;26.23;48.10;98275.39;67910;1276;1016443;-65
2023/09/19 00:27:03;;;;;;;25.80;12.00;;;;;;;26.34;47.79;98276.08;67876;1276;1016456;-66
2023/09/19 00:30:05;;;;;;;25.90;11.90;;;;;;;26.39;47.77;98270.33;67855;1276;1016364;-66
2023/09/19 00:33:08;;;;;;;27.10;12.30;;;;;;;26.35;47.83;98266.61;67870;1276;1016451;-65
2023/09/19 00:36:10;;;;;;;25.10;12.20;;;;;;;26.35;47.84;98260.27;67920;1276;1016773;-66
2023/09/19 00:39:12;;;;;;;26.60;11.90;;;;;;;26.32;48.03;98260.79;67903;1276;1016287;-67
2023/09/19 00:42:15;;;;;;;26.50;12.20;;;;;;;26.26;48.14;98248.27;67867;1276;1016088;-68
2023/09/19 00:45:17;;;;;;;26.40;12.30;;;;;;;26.14;48.41;98247.90;67887;1276;1016219;-65
2023/09/19 00:48:20;;;;;;;25.90;11.40;;;;;;;26.20;48.44;98243.71;67896;1276;1016384;-66
2023/09/19 00:51:22;;;;;;;;;;;;;;;26.20;48.26;98240.79;67905;1276;1016153;-65
2023/09/19 00:54:25;;;;;;;29.10;12.40;;;;;;;26.23;48.38;98233.75;67904;1276;1016631;-66
2023/09/19 00:57:32;;;;;;;27.50;12.10;;;;;;;26.27;48.26;98226.96;67879;1276;1016325;-65
2023/09/19 01:00:35;;;;;;;26.80;12.50;;;;;;;26.26;48.33;98224.55;67876;1276;1018436;-65
2023/09/19 01:03:37;;;;;;;25.80;12.00;;;;;;;26.30;48.19;98223.89;67856;1276;1016001;-65
2023/09/19 01:06:40;;;;;;;24.70;11.30;;;;;;;26.36;48.14;98217.73;67839;1276;1016418;-68
2023/09/19 01:09:42;;;;;;;27.00;12.20;;;;;;;26.36;48.07;98215.53;67895;1276;1016431;-66
2023/09/19 01:12:44;;;;;;;25.90;12.10;;;;;;;26.34;48.13;98209.80;67902;1276;1016619;-68
2023/09/19 01:15:47;;;;;;;26.60;11.70;;;;;;;26.29;48.18;98208.36;67889;1276;1017342;-66
2023/09/19 01:18:49;;;;;;;;;;;;;;;26.27;48.37;98205.75;67862;1276;1016305;-65
2023/09/19 01:21:51;;;;;;;23.70;11.30;;;;;;;26.26;48.33;98203.19;67874;1276;1016472;-65
2023/09/19 01:24:54;;;;;;;25.30;11.70;;;;;;;26.22;48.52;98196.88;67867;1276;1016487;-65
2023/09/19 01:27:57;;;;;;;26.30;11.80;;;;;;;26.27;48.40;98196.11;67897;1276;1016489;-65
2023/09/19 01:31:00;;;;;;;25.40;11.80;;;;;;;26.29;48.40;98192.80;67855;1276;1016378;-66
2023/09/19 01:34:04;;;;;;;24.70;11.50;;;;;;;26.40;48.24;98193.11;67906;1276;1016403;-65
2023/09/19 01:37:06;;;;;;;26.40;11.80;;;;;;;26.45;48.12;98187.92;67885;1276;1016452;-65
2023/09/19 01:40:14;;;;;;;;;;;;;;;26.32;48.44;98188.16;67878;1276;1016493;-66
2023/09/19 01:43:17;;;;;;;25.80;11.80;;;;;;;26.26;48.55;98183.23;67858;1276;1016465;-65
2023/09/19 01:46:19;;;;;;;;;;;;;;;26.25;48.61;98183.35;67844;1276;1016360;-65
2023/09/19 01:49:22;;;;;;;26.00;11.40;;;;;;;26.17;48.79;98180.19;67830;1276;1016135;-68
2023/09/19 01:52:25;;;;;;;26.70;11.50;;;;;;;26.10;48.88;98177.55;67899;1276;1016112;-65
2023/09/19 01:55:27;;;;;;;26.10;11.70;;;;;;;26.09;49.08;98179.83;67841;1276;1017066;-67
2023/09/19 01:58:29;;;;;;;;;;;;;;;26.10;49.10;98178.58;67821;1276;1018479;-66
2023/09/19 02:01:32;;;;;;;24.70;11.90;;;;;;;26.16;49.04;98179.15;67867;1276;1015790;-65
2023/09/19 02:04:34;;;;;;;;;;;;;;;26.03;49.32;98185.70;67911;1276;1016237;-66
2023/09/19 02:07:37;;;;;;;25.80;11.20;;;;;;;26.06;49.32;98180.78;67884;1276;1016420;-66
2023/09/19 02:10:41;;;;;;;27.20;11.00;;;;;;;26.05;49.37;98179.29;67829;1276;1016488;-65
2023/09/19 02:13:43;;;;;;;29.40;11.90;;;;;;;25.95;49.64;98182.04;67843;1276;1016435;-65
2023/09/19 02:16:45;;;;;;;29.50;12.10;;;;;;;26.03;49.49;98181.24;67871;1276;1019877;-65
2023/09/19 02:19:48;;;;;;;;;;;;;;;26.00;49.64;98173.95;67827;1276;1016846;-66
2023/09/19 02:22:52;;;;;;;25.50;11.30;;;;;;;26.06;49.50;98172.63;67908;1276;1016936;-66
2023/09/19 02:25:54;;;;;;;26.20;11.40;;;;;;;26.04;49.52;98169.38;67877;1276;1016430;-65
2023/09/19 02:28:56;;;;;;;25.10;11.60;;;;;;;25.87;49.88;98167.34;67834;1276;1016529;-66
2023/09/19 02:31:59;;;;;;;;;;;;;;;25.85;50.07;98165.52;67898;1276;1016213;-66
2023/09/19 02:35:01;;;;;;;27.40;11.80;;;;;;;25.95;49.81;98161.38;67839;1276;1016106;-68
2023/09/19 02:38:06;;;;;;;26.00;11.70;;;;;;;25.94;49.99;98164.23;67863;1276;1016413;-66
2023/09/19 02:41:08;;;;;;;27.90;11.00;;;;;;;25.92;50.09;98161.76;67880;1276;1016470;-65
2023/09/19 02:44:10;;;;;;;24.80;11.40;;;;;;;25.81;50.32;98160.77;67888;1276;1016414;-65
2023/09/19 02:47:14;;;;;;;24.40;11.30;;;;;;;26.16;49.59;98159.67;67908;1276;1016388;-66
2023/09/19 02:50:17;;;;;;;25.70;11.20;;;;;;;26.21;49.41;98162.02;67880;1276;1016444;-65
2023/09/19 02:53:19;;;;;;;25.30;10.60;;;;;;;26.14;49.62;98160.75;67846;1276;1016942;-65
2023/09/19 02:56:22;;;;;;;25.80;10.80;;;;;;;26.15;49.62;98161.04;67853;1276;1017395;-68
2023/09/19 02:59:25;;;;;;;23.60;10.90;;;;;;;26.11;49.70;98162.02;67881;1276;1016395;-65
2023/09/19 03:02:28;;;;;;;27.10;11.70;;;;;;;26.12;49.68;98161.71;67871;1276;1016433;-64
2023/09/19 03:05:31;;;;;;;26.70;11.90;;;;;;;26.05;49.83;98157.67;67882;1276;1016442;-65
2023/09/19 03:08:36;;;;;;;24.80;11.00;;;;;;;26.00;49.88;98151.43;67873;1276;1016216;-65
2023/09/19 03:11:40;;;;;;;28.50;11.40;;;;;;;26.04;49.88;98148.58;67885;1276;1016696;-65
2023/09/19 03:14:42;;;;;;;25.40;11.10;;;;;;;26.02;49.99;98144.48;67861;1276;1015959;-65
2023/09/19 03:17:44;;;;;;;;;;;;;;;26.08;49.82;98137.64;67900;1276;1016268;-65
2023/09/19 03:20:47;;;;;;;;;;;;;;;26.11;49.85;98131.98;67891;1276;1016393;-65
2023/09/19 03:23:49;;;;;;;25.80;11.90;;;;;;;26.05;49.87;98132.34;67868;1276;1015823;-65
2023/09/19 03:26:52;;;;;;;24.60;11.10;;;;;;;26.02;50.20;98135.05;67856;1276;1015877;-65
2023/09/19 03:29:55;;;;;;;28.50;11.10;;;;;;;26.18;49.88;98135.52;67906;1276;1016495;-65
2023/09/19 03:32:57;;;;;;;23.90;10.70;;;;;;;26.18;49.83;98131.59;67907;1276;1016448;-65
2023/09/19 03:36:00;;;;;;;25.10;11.00;;;;;;;26.27;49.77;98127.89;67832;1276;1017621;-65
2023/09/19 03:39:04;;;;;;;25.50;11.80;;;;;;;26.20;50.04;98131.84;67900;1276;1016500;-66
2023/09/19 03:42:07;;;;;;;25.50;10.80;;;;;;;26.25;50.03;98123.35;67913;1276;1016547;-65
2023/09/19 03:45:11;;;;;;;24.60;10.60;;;;;;;26.26;49.89;98118.30;67852;1276;1016204;-65
2023/09/19 03:48:14;;;;;;;23.10;10.90;;;;;;;26.25;50.08;98123.48;67836;1276;1016773;-65
2023/09/19 03:51:16;;;;;;;31.30;12.10;;;;;;;26.14;50.26;98119.21;67881;1276;1016509;-65
2023/09/19 03:54:19;;;;;;;;;;;;;;;26.16;50.19;98114.29;67907;1276;1016428;-66
2023/09/19 03:57:21;;;;;;;24.40;10.70;;;;;;;26.29;50.03;98114.52;67842;1276;1016679;-65
2023/09/19 04:00:26;;;;;;;;;;;;;;;26.30;49.98;98116.71;67850;1276;1016302;-66
2023/09/19 04:03:34;;;;;;;26.80;11.30;;;;;;;26.31;49.98;98115.14;67878;1276;1016336;-68
2023/09/19 04:06:37;;;;;;;26.20;11.40;;;;;;;26.27;50.02;98111.89;67884;1276;1016454;-67
2023/09/19 04:09:39;;;;;;;;;;;;;;;26.31;50.12;98113.04;67883;1276;1016441;-68
2023/09/19 04:12:42;;;;;;;26.20;11.00;;;;;;;26.41;49.94;98109.40;67865;1276;1016440;-68
2023/09/19 04:15:46;;;;;;;25.30;10.90;;;;;;;26.53;49.69;98113.45;67896;1276;1016346;-66
2023/09/19 04:18:48;;;;;;;26.10;11.00;;;;;;;26.54;49.67;98114.34;67876;1276;1016383;-65
2023/09/19 04:21:51;;;;;;;;;;;;;;;26.55;49.61;98113.60;67902;1276;1016372;-65
2023/09/19 04:24:53;;;;;;;27.30;12.20;;;;;;;26.57;49.56;98116.52;67912;1276;1016308;-65
2023/09/19 04:27:55;;;;;;;30.10;10.60;;;;;;;26.44;49.99;98116.09;67869;1276;1016037;-65
2023/09/19 04:30:58;;;;;;;;;;;;;;;26.40;49.92;98119.63;67858;1276;1016176;-66
2023/09/19 04:34:04;;;;;;;26.50;11.90;;;;;;;26.34;50.01;98118.95;67878;1276;1016438;-65
2023/09/19 04:37:07;;;;;;;25.00;11.70;;;;;;;26.19;50.08;98116.92;67879;1276;1016421;-67
2023/09/19 04:40:12;;;;;;;22.80;11.10;;;;;;;26.20;50.21;98113.86;67867;1276;1016300;-65
2023/09/19 04:43:15;;;;;;;26.00;11.40;;;;;;;26.15;50.49;98120.28;67891;1276;1016334;-66
2023/09/19 04:46:17;;;;;;;25.80;12.60;;;;;;;26.11;50.86;98120.95;67858;1276;1016434;-66
2023/09/19 04:49:20;;;;;;;28.00;13.30;;;;;;;26.21;50.59;98124.73;67815;1276;1016410;-67
2023/09/19 04:52:22;;;;;;;28.90;14.30;;;;;;;26.12;50.89;98126.04;67867;1276;1018129;-67
2023/09/19 04:55:24;;;;;;;28.40;14.40;;;;;;;26.04;51.23;98125.23;67876;1276;1019171;-68
2023/09/19 04:58:27;;;;;;;28.90;14.60;;;;;;;25.95;51.45;98125.66;67848;1276;1016398;-68
2023/09/19 05:01:29;;;;;;;;;;;;;;;26.01;51.43;98130.36;67907;1276;1016168;-67
2023/09/19 05:04:32;;;;;;;;;;;;;;;26.02;51.55;98130.05;67861;1276;1016804;-66
2023/09/19 05:07:34;;;;;;;27.80;13.80;;;;;;;26.01;51.67;98124.84;67848;1276;1016164;-66
2023/09/19 05:10:38;;;;;;;28.10;14.30;;;;;;;26.11;51.93;98124.52;67893;1276;1016791;-66
2023/09/19 05:13:40;;;;;;;28.40;14.10;;;;;;;26.22;51.73;98124.33;67849;1276;1016249;-67
2023/09/19 05:16:42;;;;;;;35.10;15.00;;;;;;;26.09;51.94;98118.73;67877;1276;1018772;-67
2023/09/19 05:19:45;;;;;;;;;;;;;;;26.24;52.11;98113.02;67893;1276;1016935;-67
2023/09/19 05:22:48;;;;;;;29.60;12.90;;;;;;;26.28;52.21;98105.89;67859;1276;1016421;-67
2023/09/19 05:25:50;;;;;;;28.60;12.80;;;;;;;26.14;52.66;98101.55;67879;1276;1015997;-65
2023/09/19 05:28:53;;;;;;;25.70;12.00;;;;;;;25.99;53.16;98101.22;67876;1276;1016493;-68
2023/09/19 05:31:56;;;;;;;26.50;12.20;;;;;;;25.95;53.52;98101.02;67841;1276;1016453;-69
2023/09/19 05:34:59;;;;;;;26.80;12.50;;;;;;;25.96;53.60;98100.72;67860;1276;1016475;-69
2023/09/19 05:38:01;;;;;;;28.90;13.10;;;;;;;26.08;53.65;98101.99;67903;1276;1016443;-68
2023/09/19 05:41:03;;;;;;;27.50;12.60;;;;;;;26.23;53.42;98106.58;67883;1276;1017229;-67
2023/09/19 05:44:06;;;;;;;;;;;;;;;26.28;53.27;98115.04;67886;1276;1016072;-67
2023/09/19 05:47:09;;;;;;;36.30;15.60;;;;;;;26.32;53.45;98109.27;67858;1276;1016507;-68
2023/09/19 05:50:11;;;;;;;30.70;14.70;;;;;;;26.34;53.65;98108.47;67878;1276;1016654;-69
2023/09/19 05:53:14;;;;;;;;;;;;;;;26.42;53.70;98109.73;67883;1276;1016049;-65
2023/09/19 05:56:18;;;;;;;32.90;15.50;;;;;;;26.38;53.80;98103.42;67816;1276;1016480;-68
2023/09/19 05:59:21;;;;;;;28.30;13.20;;;;;;;26.37;53.74;98099.45;67874;1276;1016501;-65
2023/09/19 06:02:23;;;;;;;;;;;;;;;26.46;53.48;98100.08;67910;1276;1016618;-64
2023/09/19 06:05:26;;;;;;;28.00;13.60;;;;;;;26.43;53.90;98102.19;67896;1276;1016485;-64
2023/09/19 06:08:31;;;;;;;28.80;13.20;;;;;;;26.47;54.04;98105.23;67861;1276;1016471;-64
2023/09/19 06:11:34;;;;;;;29.30;13.60;;;;;;;26.57;54.10;98108.98;67897;1276;1016079;-64
2023/09/19 06:14:36;;;;;;;29.50;14.00;;;;;;;26.70;53.82;98112.61;67822;1276;1016419;-65
2023/09/19 06:17:39;;;;;;;;;;;;;;;26.75;53.81;98110.77;67842;1276;1016585;-67
2023/09/19 06:20:44;;;;;;;28.60;14.20;;;;;;;26.82;53.81;98111.66;67890;1276;1016398;-67
2023/09/19 06:23:46;;;;;;;30.50;14.10;;;;;;;26.79;54.04;98116.02;67863;1276;1016440;-67
2023/09/19 06:26:49;;;;;;;29.90;14.30;;;;;;;26.94;53.93;98120.45;67848;1276;1017972;-65
2023/09/19 06:29:51;;;;;;;39.40;22.30;;;;;;;26.93;54.07;98121.61;67901;1276;1016065;-64
2023/09/19 06:32:54;;;;;;;42.90;25.50;;;;;;;27.05;53.89;98130.73;67885;1276;1016387;-65
2023/09/19 06:36:00;;;;;;;36.20;20.60;;;;;;;27.07;53.99;98133.45;67848;1276;1016260;-65
2023/09/19 06:39:04;;;;;;;32.10;18.40;;;;;;;27.08;54.13;98134.77;67895;1276;1015962;-64
2023/09/19 06:42:07;;;;;;;34.80;19.00;;;;;;;27.07;54.26;98137.67;67871;1276;1017850;-65
2023/09/19 06:45:11;;;;;;;34.70;16.70;;;;;;;27.16;53.87;98140.52;67910;1276;1016501;-64
2023/09/19 06:48:14;;;;;;;27.50;15.20;;;;;;;27.03;54.21;98145.20;67893;1276;1015881;-64
2023/09/19 06:51:17;;;;;;;28.60;14.40;;;;;;;26.92;54.47;98146.71;67862;1276;1015969;-64
2023/09/19 06:54:19;;;;;;;29.10;14.70;;;;;;;26.85;54.51;98152.75;67878;1276;1016106;-64
2023/09/19 06:57:22;;;;;;;32.70;14.70;;;;;;;26.78;54.83;98153.89;67924;1276;1017155;-67
2023/09/19 07:00:25;;;;;;;26.40;13.70;;;;;;;26.50;55.57;98155.18;67906;1276;1016102;-64
2023/09/19 07:03:28;;;;;;;29.30;15.20;;;;;;;26.32;56.29;98161.24;67909;1276;1018760;-64
2023/09/19 07:06:31;;;;;;;29.10;15.30;;;;;;;26.21;56.56;98165.58;67867;1276;1016368;-64
2023/09/19 07:09:33;;;;;;;30.60;15.90;;;;;;;26.10;56.74;98165.52;67816;1276;1016478;-65
2023/09/19 07:12:36;;;;;;;27.30;15.10;;;;;;;26.09;56.93;98171.93;67901;1276;1016521;-68
2023/09/19 07:15:41;;;;;;;30.10;16.10;;;;;;;25.74;58.32;98179.41;67874;1276;1016253;-65
2023/09/19 07:18:45;;;;;;;28.10;15.00;;;;;;;25.59;59.15;98182.19;67902;1276;1016374;-65
2023/09/19 07:21:50;;;;;;;29.10;15.00;;;;;;;25.43;59.03;98186.05;67890;1276;1018639;-64
2023/09/19 07:24:52;;;;;;;30.20;15.30;;;;;;;25.44;58.95;98184.58;67845;1276;1016464;-68
2023/09/19 07:27:55;;;;;;;30.30;14.80;;;;;;;25.44;58.90;98181.68;67852;1276;1016304;-65
2023/09/19 07:30:57;;;;;;;;;;;;;;;25.63;58.12;98178.71;67863;1276;1016377;-65
2023/09/19 07:34:00;;;;;;;27.90;15.00;;;;;;;25.71;58.29;98180.85;67850;1276;1016499;-64
2023/09/19 07:37:03;;;;;;;29.20;15.60;;;;;;;25.95;57.89;98176.81;67894;1276;1016312;-65
2023/09/19 07:40:07;;;;;;;30.50;16.10;;;;;;;25.95;58.30;98177.51;67838;1276;1016558;-65
2023/09/19 07:43:09;;;;;;;30.90;16.20;;;;;;;25.94;58.14;98179.79;67847;1276;1016511;-64
2023/09/19 07:46:12;;;;;;;31.00;16.00;;;;;;;26.18;57.60;98177.69;67856;1276;1016767;-65
2023/09/19 07:49:15;;;;;;;29.60;15.80;;;;;;;26.17;57.66;98180.23;67857;1276;1016920;-65
2023/09/19 07:52:19;;;;;;;29.90;15.40;;;;;;;26.06;58.00;98183.84;67857;1276;1016814;-64
2023/09/19 07:55:23;;;;;;;32.60;16.00;;;;;;;25.99;58.23;98191.14;67854;1276;1016527;-64
2023/09/19 07:58:26;;;;;;;32.20;15.70;;;;;;;25.76;58.57;98199.41;67858;1276;1016554;-65
2023/09/19 08:01:28;;;;;;;30.70;16.00;;;;;;;25.47;59.48;98208.80;67888;1276;1018794;-65
2023/09/19 08:04:33;;;;;;;30.50;16.60;;;;;;;25.17;60.38;98220.95;67883;1276;1016514;-64
2023/09/19 08:07:36;;;;;;;30.30;16.20;;;;;;;25.09;59.96;98227.45;67859;1276;1016491;-64
2023/09/19 08:10:42;;;;;;;30.80;16.40;;;;;;;25.06;60.41;98231.73;67883;1276;1016457;-65
2023/09/19 08:13:45;;;;;;;32.10;16.80;;;;;;;24.85;60.94;98239.11;67888;1276;1017883;-66
2023/09/19 08:16:48;;;;;;;30.20;16.50;;;;;;;24.92;60.42;98242.62;67849;1276;1015686;-64
2023/09/19 08:19:52;;;;;;;29.40;15.80;;;;;;;24.98;59.75;98243.71;67877;1276;1016508;-65
2023/09/19 08:22:55;;;;;;;31.90;16.60;;;;;;;24.90;60.70;98251.14;67874;1276;1016501;-68
2023/09/19 08:25:58;;;;;;;29.10;15.10;;;;;;;24.89;60.87;98250.94;67852;1276;1016670;-69
2023/09/19 08:29:04;;;;;;;31.50;16.10;;;;;;;24.72;61.54;98257.50;67859;1276;1016402;-64
2023/09/19 08:32:07;;;;;;;30.60;15.80;;;;;;;24.87;60.74;98255.22;67878;1276;1016534;-65
2023/09/19 08:35:10;;;;;;;;;;;;;;;24.83;61.11;98260.43;67892;1276;1016783;-65
2023/09/19 08:38:14;;;;;;;30.40;15.60;;;;;;;24.82;61.50;98260.23;67894;1276;1016705;-65
2023/09/19 08:41:16;;;;;;;31.10;16.40;;;;;;;24.71;62.18;98263.77;67848;1276;1016042;-65
2023/09/19 08:44:19;;;;;;;;;;;;;;;24.61;62.47;98261.98;67884;1276;1016650;-64
2023/09/19 08:47:21;;;;;;;31.90;16.10;;;;;;;24.50;63.22;98263.20;67862;1276;1016156;-64
2023/09/19 08:50:23;;;;;;;;;;;;;;;24.66;62.29;98263.69;67878;1276;1016120;-65
2023/09/19 08:53:27;;;;;;;31.10;17.50;;;;;;;24.77;61.95;98266.11;67861;1276;1016797;-64
2023/09/19 08:56:30;;;;;;;32.90;17.30;;;;;;;24.67;62.66;98276.58;67863;1276;1016344;-64
2023/09/19 08:59:35;;;;;;;32.00;16.70;;;;;;;24.68;62.70;98276.83;67866;1276;1017114;-66
2023/09/19 09:02:37;;;;;;;33.10;16.70;;;;;;;24.66;63.05;98279.37;67913;1276;1016484;-65
2023/09/19 09:05:41;;;;;;;33.50;17.10;;;;;;;24.55;63.35;98286.42;67845;1276;1016236;-64
2023/09/19 09:08:44;;;;;;;29.90;16.50;;;;;;;24.61;63.38;98289.92;67720;1276;1016485;-65
2023/09/19 09:11:47;;;;;;;32.40;16.50;;;;;;;24.80;61.72;98290.53;67839;1276;1016668;-65
2023/09/19 09:14:49;;;;;;;;;;;;;;;24.96;61.43;98292.39;67869;1276;1017895;-64
2023/09/19 09:17:52;;;;;;;;;;;;;;;24.95;61.81;98294.33;67886;1276;1016416;-65
2023/09/19 09:20:55;;;;;;;29.80;15.40;;;;;;;24.94;61.80;98300.89;67883;1276;1016446;-65
2023/09/19 09:23:58;;;;;;;31.20;17.30;;;;;;;25.15;60.75;98304.28;67855;1276;1018740;-64
2023/09/19 09:27:02;;;;;;;;;;;;;;;25.39;60.04;98306.79;67851;1276;1016395;-65
2023/09/19 09:30:07;;;;;;;31.60;16.40;;;;;;;25.43;60.06;98312.08;67868;1276;1016089;-65
2023/09/19 09:33:10;;;;;;;28.90;14.60;;;;;;;25.47;60.05;98316.06;67885;1276;1016494;-65
2023/09/19 09:36:13;;;;;;;30.30;15.70;;;;;;;25.51;60.09;98321.95;67852;1276;1016511;-64
2023/09/19 09:39:24;;;;;;;31.70;15.60;;;;;;;25.68;59.49;98323.22;67889;1276;1016241;-64
2023/09/19 09:42:26;;;;;;;28.70;15.30;;;;;;;25.89;59.29;98327.02;67864;1276;1016433;-64
2023/09/19 09:45:37;;;;;;;;;;;;;;;25.96;59.19;98330.39;67837;1276;1016280;-64
2023/09/19 09:48:39;;;;;;;29.30;13.50;;;;;;;25.97;59.18;98333.60;67851;1276;1016351;-64
2023/09/19 09:51:42;;;;;;;;;;;;;;;25.98;59.24;98336.88;67834;1276;1016372;-64
2023/09/19 09:54:45;;;;;;;28.40;13.50;;;;;;;25.98;59.35;98342.29;67852;1276;1016333;-65
2023/09/19 09:57:48;;;;;;;26.40;11.10;;;;;;;25.95;59.66;98340.16;67860;1276;1016451;-65
2023/09/19 10:00:50;;;;;;;26.40;12.20;;;;;;;25.89;59.95;98342.84;67919;1253;1016437;-65
2023/09/19 10:03:57;;;;;;;23.90;11.10;;;;;;;25.89;59.98;98339.45;67861;1276;1016380;-65
2023/09/19 10:07:05;;;;;;;;;;;;;;;25.87;60.12;98338.46;67833;1276;1016211;-64
2023/09/19 10:10:21;;;;;;;24.00;10.10;;;;;;;25.83;60.30;98340.45;67867;1276;1016253;-65
2023/09/19 10:13:24;;;;;;;28.50;11.80;;;;;;;25.87;60.45;98345.48;67854;1276;1016390;-64
2023/09/19 10:16:28;;;;;;;28.90;12.40;;;;;;;26.00;60.21;98349.13;67853;1276;1016369;-65
2023/09/19 10:19:33;;;;;;;28.40;11.00;;;;;;;26.09;60.15;98349.88;67881;1276;1016436;-64
2023/09/19 10:22:36;;;;;;;25.20;10.10;;;;;;;26.18;59.81;98345.30;67839;1276;1016428;-65
2023/09/19 10:25:39;;;;;;;23.70;9.10;;;;;;;26.21;59.44;98338.74;67903;1276;1016213;-65
2023/09/19 10:28:41;;;;;;;22.10;9.10;;;;;;;26.20;59.60;98339.89;67866;1276;1016374;-65
2023/09/19 10:31:47;;;;;;;20.30;6.70;;;;;;;26.20;59.52;98336.13;67862;1276;1016219;-64
2023/09/19 10:34:49;;;;;;;20.50;6.90;;;;;;;26.16;59.03;98338.14;67811;1276;1016093;-65
2023/09/19 10:37:52;;;;;;;19.50;5.90;;;;;;;26.09;59.24;98339.60;67843;1276;1016418;-65
2023/09/19 10:40:55;;;;;;;17.00;4.90;;;;;;;26.06;58.83;98340.34;67855;1276;1016514;-66
2023/09/19 10:43:58;;;;;;;19.90;5.10;;;;;;;26.01;59.05;98342.17;67867;1276;1016398;-65
2023/09/19 10:47:01;;;;;;;16.60;4.60;;;;;;;25.92;59.15;98343.55;67890;1276;1016803;-65
2023/09/19 10:50:05;;;;;;;15.90;4.80;;;;;;;25.88;59.54;98344.58;67854;1276;1017019;-65
2023/09/19 10:53:08;;;;;;;18.50;5.30;;;;;;;25.91;59.58;98347.14;67854;1276;1017129;-64
2023/09/19 10:56:17;;;;;;;18.40;4.90;;;;;;;26.01;59.42;98350.61;67916;1276;1016009;-65
2023/09/19 10:59:20;;;;;;;15.90;4.90;;;;;;;26.01;59.34;98348.34;67851;1276;1015754;-65
2023/09/19 11:02:24;;;;;;;19.00;4.90;;;;;;;26.00;59.47;98351.52;67858;1276;1015987;-65
2023/09/19 11:05:29;;;;;;;17.80;5.30;;;;;;;26.19;58.86;98351.45;67789;1276;1016488;-68
2023/09/19 11:08:33;;;;;;;16.50;5.10;;;;;;;26.44;58.24;98352.88;67826;1276;1016399;-66
2023/09/19 11:11:35;;;;;;;20.60;5.80;;;;;;;26.40;58.12;98350.89;67861;1276;1016246;-65
2023/09/19 11:14:38;;;;;;;;;;;;;;;26.28;58.51;98349.16;67872;1276;1015919;-65
2023/09/19 11:17:42;;;;;;;15.70;5.70;;;;;;;26.25;58.70;98351.64;67909;1276;1016358;-64
2023/09/19 11:20:51;;;;;;;20.90;5.80;;;;;;;26.19;58.83;98356.52;67863;1276;1016427;-67
2023/09/19 11:23:53;;;;;;;17.40;5.40;;;;;;;26.18;58.95;98356.52;67875;1276;1015976;-65
2023/09/19 11:26:56;;;;;;;16.70;5.00;;;;;;;26.12;58.88;98355.81;67873;1276;1016330;-64
2023/09/19 11:29:59;;;;;;;17.90;5.60;;;;;;;25.88;59.60;98359.88;67905;1276;1016034;-65
2023/09/19 11:33:02;;;;;;;19.60;5.70;;;;;;;25.98;59.28;98361.92;67880;1276;1016525;-65
2023/09/19 11:36:04;;;;;;;18.50;5.50;;;;;;;26.13;58.92;98362.02;67909;1276;1016389;-65
2023/09/19 11:39:14;;;;;;;18.60;5.90;;;;;;;26.32;58.67;98366.23;67898;1276;1016387;-64
2023/09/19 11:42:17;;;;;;;19.20;6.20;;;;;;;26.25;58.92;98367.52;67922;1276;1016464;-65
2023/09/19 11:45:19;;;;;;;20.90;6.10;;;;;;;26.32;58.72;98367.64;67880;1276;1016439;-64
2023/09/19 11:48:25;;;;;;;22.00;7.40;;;;;;;26.44;58.54;98366.60;67860;1276;1016411;-68
2023/09/19 11:51:27;;;;;;;18.30;6.90;;;;;;;26.47;58.42;98371.77;67865;1276;1016469;-65
2023/09/19 11:54:31;;;;;;;23.20;7.70;;;;;;;26.63;58.22;98371.57;67840;1276;1016647;-65
2023/09/19 11:57:35;;;;;;;22.80;7.40;;;;;;;26.78;58.03;98377.14;67866;1276;1016240;-65
2023/09/19 12:00:38;;;;;;;22.70;7.50;;;;;;;26.95;57.57;98377.37;67892;1276;1016165;-64
2023/09/19 12:03:41;;;;;;;24.30;8.40;;;;;;;27.02;57.54;98374.54;67920;1276;1016086;-64
2023/09/19 12:06:44;;;;;;;20.60;6.90;;;;;;;26.97;57.56;98373.69;67877;1276;1016377;-65
2023/09/19 12:09:47;;;;;;;23.10;7.30;;;;;;;26.91;57.67;98375.84;67884;1276;1016475;-65
2023/09/19 12:12:50;;;;;;;22.50;7.10;;;;;;;26.96;57.82;98376.20;67876;1276;1016402;-65
2023/09/19 12:15:53;;;;;;;18.60;6.10;;;;;;;27.13;57.72;98376.61;67902;1276;1016350;-65
2023/09/19 12:18:56;;;;;;;21.20;7.80;;;;;;;27.32;57.58;98376.98;67887;1276;1016210;-65
2023/09/19 12:21:59;;;;;;;25.10;7.20;;;;;;;27.52;57.13;98380.81;67925;1276;1016296;-65
2023/09/19 12:25:02;;;;;;;24.20;7.30;;;;;;;27.41;57.33;98382.86;67904;1276;1018145;-67
2023/09/19 12:28:06;;;;;;;21.40;6.90;;;;;;;27.38;57.83;98386.38;67922;1276;1016481;-66
2023/09/19 12:31:08;;;;;;;19.50;7.00;;;;;;;27.24;58.05;98389.02;67901;1276;1016413;-64
2023/09/19 12:34:14;;;;;;;20.90;6.70;;;;;;;27.27;57.97;98387.52;67855;1276;1016178;-64
2023/09/19 12:37:20;;;;;;;19.10;6.40;;;;;;;27.14;58.56;98392.10;67865;1276;1016480;-65
2023/09/19 12:40:27;;;;;;;19.50;5.40;;;;;;;27.10;58.81;98392.69;67886;1276;1016286;-65
2023/09/19 12:43:32;;;;;;;19.90;5.70;;;;;;;27.11;58.38;98399.52;67910;1276;1016417;-66
2023/09/19 12:46:35;;;;;;;19.40;4.90;;;;;;;26.77;58.93;98402.02;67857;1276;1015836;-65
2023/09/19 12:49:38;;;;;;;17.40;5.30;;;;;;;26.59;59.17;98408.71;67915;1276;1016449;-67
2023/09/19 12:52:40;;;;;;;14.80;4.30;;;;;;;26.47;59.11;98411.56;67892;1276;1016222;-65
2023/09/19 12:55:43;;;;;;;20.10;4.20;;;;;;;26.35;59.32;98412.69;67887;1276;1018954;-65
2023/09/19 12:58:46;;;;;;;13.60;4.00;;;;;;;26.33;59.37;98421.44;67914;1276;1016210;-65
2023/09/19 13:01:53;;;;;;;15.70;4.10;;;;;;;26.59;58.38;98427.14;67880;1276;1016616;-66
2023/09/19 13:05:00;;;;;;;13.20;3.80;;;;;;;26.56;57.79;98427.13;67940;1276;1016208;-65
2023/09/19 13:08:02;;;;;;;13.80;3.60;;;;;;;26.32;58.23;98438.27;67900;1276;1018685;-65
2023/09/19 13:11:06;;;;;;;13.10;3.70;;;;;;;26.29;58.58;98440.66;67865;1276;1016432;-65
2023/09/19 13:14:10;;;;;;;14.70;3.80;;;;;;;26.23;58.92;98438.80;67877;1276;1016446;-66
2023/09/19 13:17:16;;;;;;;11.70;3.70;;;;;;;26.21;59.39;98439.78;67856;1276;1016457;-64
2023/09/19 13:20:19;;;;;;;10.80;3.60;;;;;;;26.25;58.98;98442.40;67901;1276;1016453;-65
2023/09/19 13:23:22;;;;;;;16.40;4.30;;;;;;;26.18;59.16;98445.28;67885;1276;1018632;-67
2023/09/19 13:26:24;;;;;;;9.90;3.60;;;;;;;26.03;59.36;98451.05;67885;1276;1017174;-66
2023/09/19 13:29:27;;;;;;;15.80;4.30;;;;;;;25.96;59.19;98453.91;67872;1276;1016188;-67
2023/09/19 13:32:29;;;;;;;13.20;4.00;;;;;;;25.88;59.37;98458.05;67868;1276;1016478;-67
2023/09/19 13:35:32;;;;;;;14.40;4.20;;;;;;;25.83;59.10;98459.45;67909;1276;1016329;-67
2023/09/19 13:38:35;;;;;;;18.00;4.50;;;;;;;25.75;59.46;98463.25;67896;1276;1015938;-65
2023/09/19 13:41:37;;;;;;;20.60;4.60;;;;;;;25.72;58.97;98462.55;67912;1276;1016081;-65
2023/09/19 13:44:41;;;;;;;18.90;4.70;;;;;;;25.78;58.74;98456.29;67901;1276;1016459;-64
2023/09/19 13:47:43;;;;;;;19.00;5.10;;;;;;;25.91;58.61;98454.23;67873;1276;1016463;-65
2023/09/19 13:50:46;;;;;;;14.70;4.50;;;;;;;25.94;58.65;98460.69;67925;1276;1016481;-65
2023/09/19 13:53:50;;;;;;;16.20;4.60;;;;;;;25.96;58.84;98459.59;67855;1276;1016904;-65
2023/09/19 13:56:52;;;;;;;14.60;3.80;;;;;;;26.08;58.79;98465.83;67863;1276;1016414;-67